Time;durP1;ratioP1;P1;durP2;ratioP2;P2;SDS_P1;SDS_P2;PMS_P1;PMS_P2;Temp;Humidity;BMP_temperature;BMP_pressure;BME280_temperature;BME280_humidity;BME280_pressure;Samples;Min_cycle;Max_cycle;Signal;HPM_P1;HPM_P2
2023/09/16 00:00:17;;;;;;;12.57;8.87;;;;;;;;;;10307329;28;20491;-89
2023/09/16 00:05:20;;;;;;;11.23;7.87;;;;;;;;;;10305732;28;20477;-89
2023/09/16 00:10:22;;;;;;;13.60;8.98;;;;;;;;;;10311586;28;20471;-88
2023/09/16 00:15:27;;;;;;;10.07;8.80;;;;;;;;;;10305520;28;20489;-89
2023/09/16 00:20:29;;;;;;;10.40;8.53;;;;;;;;;;10332042;28;20422;-89
2023/09/16 00:25:32;;;;;;;16.02;9.07;;;;;;;;;;10346846;28;20409;-90
2023/09/16 00:30:36;;;;;;;11.13;8.60;;;;;;;;;;10350502;28;20545;-89
2023/09/16 00:35:38;;;;;;;9.18;7.95;;;;;;;;;;10341018;28;20421;-89
2023/09/16 00:40:41;;;;;;;11.75;8.77;;;;;;;;;;10343210;28;20420;-89
2023/09/16 00:45:45;;;;;;;10.40;8.25;;;;;;;;;;10346687;28;20438;-89
2023/09/16 00:50:48;;;;;;;11.63;9.02;;;;;;;;;;10354976;28;20483;-87
2023/09/16 00:55:50;;;;;;;10.38;7.93;;;;;;;;;;10339014;28;20475;-90
2023/09/16 01:00:54;;;;;;;13.07;8.75;;;;;;;;;;10339387;28;20427;-89
2023/09/16 01:05:57;;;;;;;10.35;7.85;;;;;;;;;;10328883;28;20502;-87
2023/09/16 01:11:02;;;;;;;10.45;7.38;;;;;;;;;;10335760;28;20419;-90
2023/09/16 01:16:22;;;;;;;9.77;7.38;;;;;;;;;;10338562;28;20444;-90
2023/09/16 01:21:24;;;;;;;10.77;7.43;;;;;;;;;;10339088;28;20419;-89
2023/09/16 01:26:28;;;;;;;10.87;7.60;;;;;;;;;;10341141;28;20466;-88
2023/09/16 01:31:31;;;;;;;10.32;7.80;;;;;;;;;;10344678;28;20467;-89
2023/09/16 01:36:35;;;;;;;10.35;7.85;;;;;;;;;;10345657;28;20456;-89
2023/09/16 01:41:40;;;;;;;10.00;7.90;;;;;;;;;;10342355;28;20459;-89
2023/09/16 01:46:42;;;;;;;11.32;7.72;;;;;;;;;;10341545;28;20801;-88
2023/09/16 01:51:44;;;;;;;12.13;8.10;;;;;;;;;;10339583;28;20409;-89
2023/09/16 01:56:48;;;;;;;10.93;7.77;;;;;;;;;;10344859;28;20818;-89
2023/09/16 02:01:51;;;;;;;10.37;7.60;;;;;;;;;;10333817;28;20483;-89
2023/09/16 02:06:53;;;;;;;10.90;7.63;;;;;;;;;;10344881;28;20808;-89
2023/09/16 02:11:57;;;;;;;12.00;7.93;;;;;;;;;;10339437;28;21049;-89
2023/09/16 02:17:01;;;;;;;8.82;7.45;;;;;;;;;;10338721;28;20463;-89
2023/09/16 02:22:04;;;;;;;9.77;7.60;;;;;;;;;;10340412;28;20428;-89
2023/09/16 02:27:07;;;;;;;9.98;7.85;;;;;;;;;;10345879;28;20423;-89
2023/09/16 02:32:10;;;;;;;11.25;7.53;;;;;;;;;;10341026;28;20907;-89
2023/09/16 02:37:12;;;;;;;10.02;7.75;;;;;;;;;;10347670;28;20413;-89
2023/09/16 02:42:16;;;;;;;10.27;7.47;;;;;;;;;;10342002;28;20429;-89
2023/09/16 02:47:20;;;;;;;8.95;7.50;;;;;;;;;;10349664;28;20419;-89
2023/09/16 02:52:22;;;;;;;9.32;7.65;;;;;;;;;;10350300;28;20408;-88
2023/09/16 02:57:26;;;;;;;10.80;8.00;;;;;;;;;;10351855;28;20431;-89
2023/09/16 03:02:28;;;;;;;9.52;7.50;;;;;;;;;;10341960;28;20424;-89
2023/09/16 03:07:30;;;;;;;9.20;7.33;;;;;;;;;;10345157;28;20436;-88
2023/09/16 03:12:34;;;;;;;10.05;7.65;;;;;;;;;;10349418;28;20467;-89
2023/09/16 03:17:36;;;;;;;9.77;7.30;;;;;;;;;;10342821;28;20477;-89
2023/09/16 03:22:39;;;;;;;9.00;7.20;;;;;;;;;;10345588;28;20491;-89
2023/09/16 03:27:42;;;;;;;10.48;7.28;;;;;;;;;;10347511;28;20459;-88
2023/09/16 03:32:45;;;;;;;9.50;6.80;;;;;;;;;;10345787;28;20423;-88
2023/09/16 03:37:47;;;;;;;10.55;7.70;;;;;;;;;;10347619;28;20431;-89
2023/09/16 03:42:51;;;;;;;11.43;7.47;;;;;;;;;;10335941;28;20420;-89
2023/09/16 03:47:53;;;;;;;11.67;7.90;;;;;;;;;;10342782;28;20417;-89
2023/09/16 03:52:56;;;;;;;14.23;8.43;;;;;;;;;;10343987;28;20411;-88
2023/09/16 03:58:00;;;;;;;9.47;8.03;;;;;;;;;;10341964;28;20488;-87
2023/09/16 04:03:02;;;;;;;12.85;8.93;;;;;;;;;;10343188;28;20789;-88
2023/09/16 04:08:05;;;;;;;10.63;8.23;;;;;;;;;;10343298;28;20405;-89
2023/09/16 04:13:09;;;;;;;12.15;8.38;;;;;;;;;;10344231;28;20405;-89
2023/09/16 04:18:11;;;;;;;11.53;8.20;;;;;;;;;;10345868;28;20420;-89
2023/09/16 04:23:13;;;;;;;11.73;8.73;;;;;;;;;;10342004;28;20429;-88
2023/09/16 04:28:17;;;;;;;10.87;7.50;;;;;;;;;;10347573;28;20448;-89
2023/09/16 04:33:21;;;;;;;11.60;8.20;;;;;;;;;;10336233;28;21047;-89
2023/09/16 04:38:23;;;;;;;11.75;7.22;;;;;;;;;;10348078;28;20446;-88
2023/09/16 04:43:27;;;;;;;9.95;7.82;;;;;;;;;;10342484;28;20486;-89
2023/09/16 04:48:30;;;;;;;9.55;7.32;;;;;;;;;;10336910;28;20424;-89
2023/09/16 04:53:33;;;;;;;9.50;7.37;;;;;;;;;;10340846;28;20820;-89
2023/09/16 04:58:37;;;;;;;9.45;7.35;;;;;;;;;;10341684;28;20436;-88
2023/09/16 05:03:39;;;;;;;9.05;6.97;;;;;;;;;;10336473;28;20491;-89
2023/09/16 05:08:42;;;;;;;8.88;7.03;;;;;;;;;;10344683;28;20877;-88
2023/09/16 05:13:46;;;;;;;10.47;6.90;;;;;;;;;;10340707;28;20407;-89
2023/09/16 05:18:49;;;;;;;10.80;7.60;;;;;;;;;;10337094;28;20532;-88
2023/09/16 05:23:52;;;;;;;12.13;7.40;;;;;;;;;;10331539;28;20427;-89
2023/09/16 05:28:57;;;;;;;8.20;7.10;;;;;;;;;;10347901;28;20411;-90
2023/09/16 05:33:59;;;;;;;9.38;6.90;;;;;;;;;;10337254;28;20962;-89
2023/09/16 05:39:02;;;;;;;8.38;6.47;;;;;;;;;;10334846;28;20503;-88
2023/09/16 05:44:06;;;;;;;8.93;6.57;;;;;;;;;;10327514;28;20932;-89
2023/09/16 05:49:09;;;;;;;10.52;6.45;;;;;;;;;;10333256;28;20416;-88
2023/09/16 05:54:13;;;;;;;9.35;6.40;;;;;;;;;;10328899;28;20468;-89
2023/09/16 05:59:17;;;;;;;11.20;6.22;;;;;;;;;;10326585;28;20417;-89
2023/09/16 06:04:20;;;;;;;7.30;5.80;;;;;;;;;;10329341;28;20549;-89
2023/09/16 06:09:22;;;;;;;7.00;6.20;;;;;;;;;;10333597;28;20462;-89
2023/09/16 06:14:26;;;;;;;7.78;5.95;;;;;;;;;;10333116;28;20468;-88
2023/09/16 06:19:29;;;;;;;10.43;6.10;;;;;;;;;;10338422;28;20479;-89
2023/09/16 06:24:31;;;;;;;6.93;5.90;;;;;;;;;;10337056;28;20441;-89
2023/09/16 06:29:35;;;;;;;6.22;5.45;;;;;;;;;;10347768;28;20412;-89
2023/09/16 06:34:37;;;;;;;7.55;5.40;;;;;;;;;;10328275;28;20482;-88
2023/09/16 06:39:40;;;;;;;7.03;5.53;;;;;;;;;;10351939;28;20495;-89
2023/09/16 06:44:43;;;;;;;6.68;5.22;;;;;;;;;;10349158;28;20427;-89
2023/09/16 06:49:46;;;;;;;7.65;5.57;;;;;;;;;;10345168;28;20445;-89
2023/09/16 06:54:49;;;;;;;6.03;4.85;;;;;;;;;;10350352;28;20412;-89
2023/09/16 06:59:53;;;;;;;7.63;5.25;;;;;;;;;;10350110;28;20877;-89
2023/09/16 07:04:56;;;;;;;6.80;4.68;;;;;;;;;;10345459;28;20424;-89
2023/09/16 07:09:58;;;;;;;6.30;4.73;;;;;;;;;;10347777;28;20421;-89
2023/09/16 07:15:02;;;;;;;7.30;4.80;;;;;;;;;;10345438;28;20777;-89
2023/09/16 07:20:05;;;;;;;5.22;4.20;;;;;;;;;;10343945;28;20413;-89
2023/09/16 07:25:08;;;;;;;4.63;2.90;;;;;;;;;;10339674;28;20439;-89
2023/09/16 07:30:14;;;;;;;3.75;2.92;;;;;;;;;;10347027;28;20413;-89
2023/09/16 07:35:16;;;;;;;3.45;3.15;;;;;;;;;;10349391;28;20912;-89
2023/09/16 07:40:22;;;;;;;3.75;3.35;;;;;;;;;;10337396;28;20449;-89
2023/09/16 07:45:26;;;;;;;4.25;3.50;;;;;;;;;;10337446;28;20837;-88
2023/09/16 07:50:29;;;;;;;4.43;3.70;;;;;;;;;;10329232;28;20412;-88
2023/09/16 07:55:31;;;;;;;7.00;3.88;;;;;;;;;;10339646;28;20412;-89
2023/09/16 08:00:35;;;;;;;4.60;3.73;;;;;;;;;;10334933;28;20523;-89
2023/09/16 08:05:37;;;;;;;5.75;4.15;;;;;;;;;;10347544;28;20472;-88
2023/09/16 08:10:39;;;;;;;5.18;3.85;;;;;;;;;;10337165;28;20883;-89
2023/09/16 08:15:43;;;;;;;5.23;4.10;;;;;;;;;;10334381;28;20407;-88
2023/09/16 08:20:45;;;;;;;4.35;3.90;;;;;;;;;;10329963;28;20971;-88
2023/09/16 08:25:48;;;;;;;4.97;3.90;;;;;;;;;;10327744;28;20512;-87
2023/09/16 08:30:51;;;;;;;7.07;4.50;;;;;;;;;;10331653;28;20460;-88
2023/09/16 08:35:54;;;;;;;4.53;4.10;;;;;;;;;;10327863;28;20466;-88
2023/09/16 08:41:03;;;;;;;5.15;4.10;;;;;;;;;;10327607;28;20491;-88
2023/09/16 08:46:17;;;;;;;5.60;4.10;;;;;;;;;;10325742;28;20505;-87
2023/09/16 08:51:22;;;;;;;4.70;3.53;;;;;;;;;;10335388;28;20486;-87
2023/09/16 08:56:24;;;;;;;4.33;3.90;;;;;;;;;;10335122;28;20450;-88
2023/09/16 09:01:28;;;;;;;3.95;3.55;;;;;;;;;;10339294;28;20460;-87
2023/09/16 09:06:32;;;;;;;4.57;3.20;;;;;;;;;;10343061;28;20466;-87
2023/09/16 09:11:35;;;;;;;4.10;3.00;;;;;;;;;;10340992;28;20479;-86
2023/09/16 09:16:39;;;;;;;4.35;3.60;;;;;;;;;;10342037;28;20475;-87
2023/09/16 09:21:43;;;;;;;4.15;3.65;;;;;;;;;;10342863;28;20433;-87
2023/09/16 09:26:45;;;;;;;3.90;3.50;;;;;;;;;;10345257;28;20399;-88
2023/09/16 09:31:49;;;;;;;3.53;3.13;;;;;;;;;;10334649;28;20416;-87
2023/09/16 09:36:51;;;;;;;3.50;3.00;;;;;;;;;;10337657;28;20407;-87
2023/09/16 09:41:54;;;;;;;4.75;2.97;;;;;;;;;;10338402;28;20502;-88
2023/09/16 09:46:57;;;;;;;3.42;2.97;;;;;;;;;;10333344;28;20456;-87
2023/09/16 09:52:00;;;;;;;5.10;3.50;;;;;;;;;;10337752;28;20416;-88
2023/09/16 09:57:05;;;;;;;4.00;3.30;;;;;;;;;;10340192;28;20526;-87
2023/09/16 10:02:09;;;;;;;3.17;2.90;;;;;;;;;;10338447;28;20432;-88
2023/09/16 10:07:12;;;;;;;3.20;2.90;;;;;;;;;;10337883;28;20527;-87
2023/09/16 10:12:14;;;;;;;4.28;3.10;;;;;;;;;;10337986;28;20415;-88
2023/09/16 10:17:19;;;;;;;4.67;2.90;;;;;;;;;;10333672;28;20450;-82
2023/09/16 10:22:21;;;;;;;4.25;2.90;;;;;;;;;;10337443;28;20432;-81
2023/09/16 10:27:26;;;;;;;3.78;3.13;;;;;;;;;;10339354;28;20901;-88
2023/09/16 10:32:31;;;;;;;4.55;3.58;;;;;;;;;;10329806;28;20510;-84
2023/09/16 10:37:36;;;;;;;4.57;3.50;;;;;;;;;;10336313;28;20434;-85
2023/09/16 10:42:40;;;;;;;4.38;3.60;;;;;;;;;;10331617;28;20862;-85
2023/09/16 10:47:46;;;;;;;3.83;3.17;;;;;;;;;;10331027;28;20443;-84
2023/09/16 10:52:53;;;;;;;4.67;2.83;;;;;;;;;;10325338;28;20552;-85
2023/09/16 10:58:02;;;;;;;2.60;2.40;;;;;;;;;;10310954;28;20487;-84
2023/09/16 11:03:06;;;;;;;3.40;3.00;;;;;;;;;;10317360;28;20436;-85
2023/09/16 11:08:08;;;;;;;3.42;3.00;;;;;;;;;;10318535;28;20448;-85
2023/09/16 11:13:14;;;;;;;3.07;2.77;;;;;;;;;;10329553;28;20417;-85
2023/09/16 11:18:21;;;;;;;2.55;2.35;;;;;;;;;;10324552;28;20457;-88
2023/09/16 11:23:24;;;;;;;2.90;2.47;;;;;;;;;;10326663;28;20524;-85
2023/09/16 11:28:26;;;;;;;3.37;2.37;;;;;;;;;;10329777;28;20456;-84
2023/09/16 11:33:33;;;;;;;3.42;2.63;;;;;;;;;;10330787;28;20456;-85
2023/09/16 11:38:35;;;;;;;5.10;3.38;;;;;;;;;;10331682;28;20444;-86
2023/09/16 11:43:38;;;;;;;3.75;3.10;;;;;;;;;;10331956;28;20520;-85
2023/09/16 11:48:52;;;;;;;3.88;3.17;;;;;;;;;;10329142;28;20531;-85
2023/09/16 11:53:55;;;;;;;4.23;3.10;;;;;;;;;;10328990;28;20495;-84
2023/09/16 11:58:59;;;;;;;3.70;3.13;;;;;;;;;;10328238;28;21048;-85
2023/09/16 12:04:05;;;;;;;7.47;4.30;;;;;;;;;;10324663;28;20456;-84
2023/09/16 12:09:08;;;;;;;4.00;3.40;;;;;;;;;;10328744;28;20448;-86
2023/09/16 12:14:12;;;;;;;4.47;3.50;;;;;;;;;;10314211;28;20450;-85
2023/09/16 12:19:15;;;;;;;4.50;3.90;;;;;;;;;;10320961;28;21244;-85
2023/09/16 12:24:19;;;;;;;3.80;3.40;;;;;;;;;;10325642;28;20521;-85
2023/09/16 12:29:22;;;;;;;3.83;3.40;;;;;;;;;;10317231;28;20448;-85
2023/09/16 12:34:26;;;;;;;4.32;3.90;;;;;;;;;;10319208;28;20518;-86
2023/09/16 12:39:28;;;;;;;3.85;3.28;;;;;;;;;;10332461;28;20505;-86
2023/09/16 12:44:31;;;;;;;4.63;4.03;;;;;;;;;;10333330;28;20479;-85
2023/09/16 12:49:36;;;;;;;5.10;3.90;;;;;;;;;;10329976;28;20944;-87
2023/09/16 12:54:38;;;;;;;4.25;3.83;;;;;;;;;;10327991;28;20432;-87
2023/09/16 12:59:45;;;;;;;6.80;3.50;;;;;;;;;;10322200;28;20506;-87
2023/09/16 13:04:48;;;;;;;4.53;3.83;;;;;;;;;;10327359;28;20472;-87
2023/09/16 13:09:51;;;;;;;3.95;3.55;;;;;;;;;;10328223;28;21057;-87
2023/09/16 13:14:53;;;;;;;5.32;3.70;;;;;;;;;;10330507;28;20486;-87
2023/09/16 13:20:00;;;;;;;4.45;3.90;;;;;;;;;;10326798;28;21185;-87
2023/09/16 13:25:02;;;;;;;4.28;3.88;;;;;;;;;;10326577;28;20960;-87
2023/09/16 13:30:08;;;;;;;4.67;3.70;;;;;;;;;;10323104;28;20441;-84
2023/09/16 13:35:12;;;;;;;4.43;3.40;;;;;;;;;;10315650;28;20460;-84
2023/09/16 13:40:15;;;;;;;4.53;3.88;;;;;;;;;;10310146;28;20452;-85
2023/09/16 13:45:18;;;;;;;4.53;4.13;;;;;;;;;;10320750;28;20507;-85
2023/09/16 13:50:22;;;;;;;5.07;3.78;;;;;;;;;;10327431;28;20518;-85
2023/09/16 13:55:26;;;;;;;5.15;4.10;;;;;;;;;;10326553;28;20472;-85
2023/09/16 14:00:29;;;;;;;5.07;4.57;;;;;;;;;;10325101;28;20455;-85
2023/09/16 14:05:35;;;;;;;6.05;4.40;;;;;;;;;;10319559;28;20464;-86
2023/09/16 14:10:38;;;;;;;5.43;4.10;;;;;;;;;;10323780;28;20444;-83
2023/09/16 14:15:41;;;;;;;5.13;4.07;;;;;;;;;;10329903;28;20440;-84
2023/09/16 14:20:47;;;;;;;4.43;3.92;;;;;;;;;;10328764;28;20515;-84
2023/09/16 14:25:53;;;;;;;6.35;4.03;;;;;;;;;;10322414;28;20465;-85
2023/09/16 14:30:55;;;;;;;3.85;3.30;;;;;;;;;;10325950;28;20843;-84
2023/09/16 14:36:00;;;;;;;5.32;3.67;;;;;;;;;;10312693;28;20757;-84
2023/09/16 14:41:06;;;;;;;4.33;3.53;;;;;;;;;;10330825;28;20507;-83
2023/09/16 14:46:09;;;;;;;5.17;3.60;;;;;;;;;;10334477;28;20512;-83
2023/09/16 14:51:12;;;;;;;4.30;3.90;;;;;;;;;;10336276;28;20569;-84
2023/09/16 14:56:15;;;;;;;5.00;3.50;;;;;;;;;;10341629;28;20857;-84
2023/09/16 15:01:19;;;;;;;3.93;3.40;;;;;;;;;;10336514;28;20456;-84
2023/09/16 15:06:23;;;;;;;4.40;3.72;;;;;;;;;;10340359;28;20487;-83
2023/09/16 15:11:25;;;;;;;4.50;3.30;;;;;;;;;;10319458;28;20446;-84
2023/09/16 15:16:28;;;;;;;4.88;3.53;;;;;;;;;;10328302;28;20456;-83
2023/09/16 15:21:31;;;;;;;4.83;3.90;;;;;;;;;;10329691;28;20504;-84
2023/09/16 15:26:36;;;;;;;6.43;3.97;;;;;;;;;;10335174;28;20519;-84
2023/09/16 15:31:38;;;;;;;5.47;4.05;;;;;;;;;;10330408;28;21069;-85
2023/09/16 15:36:44;;;;;;;6.35;4.20;;;;;;;;;;10329195;28;20525;-84
2023/09/16 15:41:47;;;;;;;5.93;4.38;;;;;;;;;;10322035;28;20511;-84
2023/09/16 15:46:49;;;;;;;4.95;4.43;;;;;;;;;;10307937;28;20990;-84
2023/09/16 15:51:53;;;;;;;6.03;4.63;;;;;;;;;;10326079;28;20517;-84
2023/09/16 15:56:55;;;;;;;5.93;4.70;;;;;;;;;;10332475;28;20500;-84
2023/09/16 16:01:58;;;;;;;6.85;4.75;;;;;;;;;;10327914;28;20512;-84
2023/09/16 16:07:04;;;;;;;7.63;4.63;;;;;;;;;;10334491;28;20829;-84
2023/09/16 16:12:06;;;;;;;6.10;4.90;;;;;;;;;;10337593;28;20914;-85
2023/09/16 16:17:10;;;;;;;7.30;4.80;;;;;;;;;;10310020;28;20460;-87
2023/09/16 16:22:16;;;;;;;5.57;4.63;;;;;;;;;;10331408;28;20497;-84
2023/09/16 16:27:19;;;;;;;4.95;4.10;;;;;;;;;;10324717;28;20899;-86
2023/09/16 16:32:22;;;;;;;5.10;4.47;;;;;;;;;;10325213;28;20448;-85
2023/09/16 16:37:25;;;;;;;6.32;4.25;;;;;;;;;;10339485;28;20511;-85
2023/09/16 16:42:27;;;;;;;5.43;4.43;;;;;;;;;;10332665;28;20436;-85
2023/09/16 16:47:30;;;;;;;6.20;4.38;;;;;;;;;;10329581;28;20466;-84
2023/09/16 16:52:34;;;;;;;7.23;4.97;;;;;;;;;;10335127;28;20405;-84
2023/09/16 16:57:37;;;;;;;7.07;4.30;;;;;;;;;;10338294;28;20405;-85
2023/09/16 17:02:41;;;;;;;8.13;5.13;;;;;;;;;;10334169;28;20439;-85
2023/09/16 17:07:44;;;;;;;4.83;4.10;;;;;;;;;;10338866;28;20469;-85
2023/09/16 17:12:46;;;;;;;5.65;4.63;;;;;;;;;;10339008;28;20439;-85
2023/09/16 17:17:49;;;;;;;6.53;4.90;;;;;;;;;;10339763;28;20458;-85
2023/09/16 17:22:52;;;;;;;9.23;6.43;;;;;;;;;;10326332;28;20827;-84
2023/09/16 17:27:55;;;;;;;8.80;5.78;;;;;;;;;;10335302;28;20447;-85
2023/09/16 17:32:57;;;;;;;9.63;6.80;;;;;;;;;;10335215;28;20450;-85
2023/09/16 17:38:01;;;;;;;8.20;6.55;;;;;;;;;;10330996;28;20439;-83
2023/09/16 17:43:03;;;;;;;13.60;8.73;;;;;;;;;;10330185;28;20445;-82
2023/09/16 17:48:06;;;;;;;15.15;8.00;;;;;;;;;;10332642;28;20441;-83
2023/09/16 17:53:10;;;;;;;9.32;6.80;;;;;;;;;;10329092;28;20491;-84
2023/09/16 17:58:12;;;;;;;8.93;6.75;;;;;;;;;;10336725;28;20415;-86
2023/09/16 18:03:15;;;;;;;10.52;6.93;;;;;;;;;;10333360;28;20907;-84
2023/09/16 18:08:19;;;;;;;10.23;7.53;;;;;;;;;;10320889;28;20460;-85
2023/09/16 18:13:21;;;;;;;9.35;7.20;;;;;;;;;;10331798;28;20507;-83
2023/09/16 18:18:23;;;;;;;11.55;7.70;;;;;;;;;;10336970;28;20507;-84
2023/09/16 18:23:31;;;;;;;8.80;6.77;;;;;;;;;;10338433;28;20458;-84
2023/09/16 18:28:33;;;;;;;8.18;6.57;;;;;;;;;;10330271;28;20899;-84
2023/09/16 18:33:36;;;;;;;9.83;7.13;;;;;;;;;;10330787;28;20444;-84
2023/09/16 18:38:40;;;;;;;8.98;7.32;;;;;;;;;;10326012;28;20452;-84
2023/09/16 18:43:42;;;;;;;8.88;6.70;;;;;;;;;;10331381;28;20458;-84
2023/09/16 18:48:44;;;;;;;9.98;6.93;;;;;;;;;;10328610;28;20454;-84
2023/09/16 18:53:48;;;;;;;9.10;6.57;;;;;;;;;;10338954;28;20449;-84
2023/09/16 18:58:50;;;;;;;8.38;6.50;;;;;;;;;;10332466;28;20416;-83
2023/09/16 19:03:53;;;;;;;7.70;6.37;;;;;;;;;;10339539;28;20758;-83
2023/09/16 19:08:57;;;;;;;8.35;6.10;;;;;;;;;;10337176;28;20692;-84
2023/09/16 19:13:59;;;;;;;7.45;5.97;;;;;;;;;;10330986;28;20567;-84
2023/09/16 19:19:02;;;;;;;7.57;5.40;;;;;;;;;;10334020;28;20416;-84
2023/09/16 19:24:07;;;;;;;5.53;4.47;;;;;;;;;;10337138;28;20440;-84
2023/09/16 19:29:09;;;;;;;6.50;4.97;;;;;;;;;;10325918;28;20450;-84
2023/09/16 19:34:12;;;;;;;6.70;5.17;;;;;;;;;;10335255;28;20401;-84
2023/09/16 19:39:16;;;;;;;5.47;4.90;;;;;;;;;;10340056;28;20444;-84
2023/09/16 19:44:18;;;;;;;6.07;5.10;;;;;;;;;;10337028;28;21110;-84
2023/09/16 19:49:20;;;;;;;6.13;4.90;;;;;;;;;;10333174;28;20411;-84
2023/09/16 19:54:24;;;;;;;5.93;4.85;;;;;;;;;;10336177;28;20480;-84
2023/09/16 19:59:27;;;;;;;6.35;5.18;;;;;;;;;;10336575;28;20424;-84
2023/09/16 20:04:29;;;;;;;5.57;4.97;;;;;;;;;;10324366;28;20464;-84
2023/09/16 20:09:33;;;;;;;6.63;5.25;;;;;;;;;;10333203;28;20413;-84
2023/09/16 20:14:35;;;;;;;5.40;4.60;;;;;;;;;;10333859;28;20449;-84
2023/09/16 20:19:37;;;;;;;7.03;5.28;;;;;;;;;;10337851;28;20453;-84
2023/09/16 20:24:41;;;;;;;8.48;4.90;;;;;;;;;;10305912;28;20509;-84
2023/09/16 20:29:43;;;;;;;8.07;5.35;;;;;;;;;;10319287;28;20455;-84
2023/09/16 20:34:46;;;;;;;6.82;5.32;;;;;;;;;;10319596;28;21149;-83
2023/09/16 20:39:50;;;;;;;6.43;5.23;;;;;;;;;;10317510;28;20538;-83
2023/09/16 20:44:52;;;;;;;7.70;5.50;;;;;;;;;;10331694;28;20515;-82
2023/09/16 20:49:55;;;;;;;7.72;5.50;;;;;;;;;;10338283;28;20447;-83
2023/09/16 20:54:59;;;;;;;8.93;5.97;;;;;;;;;;10335222;28;20409;-85
2023/09/16 21:00:02;;;;;;;8.00;5.72;;;;;;;;;;10329471;28;20475;-85
2023/09/16 21:05:05;;;;;;;6.97;5.28;;;;;;;;;;10321896;28;20468;-85
2023/09/16 21:10:10;;;;;;;6.88;5.80;;;;;;;;;;10322594;28;20492;-84
2023/09/16 21:15:12;;;;;;;6.50;5.80;;;;;;;;;;10331190;28;20445;-84
2023/09/16 21:20:15;;;;;;;7.88;5.78;;;;;;;;;;10335195;28;20440;-85
2023/09/16 21:25:19;;;;;;;8.02;5.88;;;;;;;;;;10330142;28;20700;-84
2023/09/16 21:30:22;;;;;;;8.60;6.25;;;;;;;;;;10331701;28;21003;-84
2023/09/16 21:35:24;;;;;;;7.90;5.97;;;;;;;;;;10330950;28;20517;-84
2023/09/16 21:40:28;;;;;;;9.40;6.10;;;;;;;;;;10330671;28;20417;-85
2023/09/16 21:45:31;;;;;;;9.05;6.38;;;;;;;;;;10334338;28;20508;-84
2023/09/16 21:50:33;;;;;;;9.38;6.40;;;;;;;;;;10322661;28;20814;-84
2023/09/16 21:55:37;;;;;;;9.80;6.38;;;;;;;;;;10326805;28;20476;-84
2023/09/16 22:00:40;;;;;;;8.90;6.10;;;;;;;;;;10327645;28;20421;-83
2023/09/16 22:05:43;;;;;;;7.30;6.10;;;;;;;;;;10324373;28;20883;-85
2023/09/16 22:10:46;;;;;;;9.18;6.00;;;;;;;;;;10319388;28;20739;-84
2023/09/16 22:15:49;;;;;;;7.80;6.30;;;;;;;;;;10323353;28;20416;-85
2023/09/16 22:20:51;;;;;;;8.57;6.28;;;;;;;;;;10304142;28;20524;-84
2023/09/16 22:26:03;;;;;;;10.07;6.10;;;;;;;;;;10317772;28;20536;-84
2023/09/16 22:31:05;;;;;;;9.55;6.07;;;;;;;;;;10320401;28;20491;-84
2023/09/16 22:36:08;;;;;;;8.10;6.60;;;;;;;;;;10340306;28;20419;-84
2023/09/16 22:41:12;;;;;;;8.52;6.43;;;;;;;;;;10324477;28;20572;-84
2023/09/16 22:46:14;;;;;;;8.52;6.60;;;;;;;;;;10336653;28;20835;-83
2023/09/16 22:51:16;;;;;;;8.27;6.63;;;;;;;;;;10328700;28;20969;-84
2023/09/16 22:56:21;;;;;;;10.63;6.57;;;;;;;;;;10334312;28;20777;-83
2023/09/16 23:01:25;;;;;;;10.70;7.40;;;;;;;;;;10329211;28;20539;-84
2023/09/16 23:06:27;;;;;;;9.60;7.47;;;;;;;;;;10335879;28;20472;-84
2023/09/16 23:11:31;;;;;;;12.43;8.35;;;;;;;;;;10343983;28;20409;-84
2023/09/16 23:16:33;;;;;;;15.50;8.55;;;;;;;;;;10349596;23;20411;-84
2023/09/16 23:21:36;;;;;;;10.87;8.80;;;;;;;;;;10249578;28;20971;-84
2023/09/16 23:26:39;;;;;;;11.82;8.38;;;;;;;;;;10248432;29;20472;-84
2023/09/16 23:31:42;;;;;;;12.73;9.40;;;;;;;;;;10245277;29;20498;-83
2023/09/16 23:36:45;;;;;;;12.00;9.38;;;;;;;;;;10245545;28;20412;-83
2023/09/16 23:41:48;;;;;;;12.27;9.20;;;;;;;;;;10245487;28;20452;-83
2023/09/16 23:46:51;;;;;;;12.50;9.85;;;;;;;;;;10245266;28;20459;-84
2023/09/16 23:51:53;;;;;;;12.97;9.80;;;;;;;;;;10246228;29;20423;-83
2023/09/16 23:56:57;;;;;;;14.63;9.75;;;;;;;;;;10245118;29;20888;-83
